createdAt,value
2023-02-03T00:00:50.849Z,0.00
2023-02-03T00:01:50.908Z,0.00
2023-02-03T00:02:50.891Z,0.00
2023-02-03T00:03:50.831Z,0.00
2023-02-03T00:04:50.807Z,0.00
2023-02-03T00:05:50.787Z,0.00
2023-02-03T00:06:50.795Z,0.00
2023-02-03T00:07:50.807Z,0.00
2023-02-03T00:08:50.782Z,0.00
2023-02-03T00:09:50.781Z,0.00
2023-02-03T00:10:50.773Z,0.00
2023-02-03T00:11:50.746Z,0.00
2023-02-03T00:12:50.712Z,0.00
2023-02-03T00:13:50.714Z,0.00
2023-02-03T00:14:50.707Z,0.00
2023-02-03T00:15:50.686Z,0.00
2023-02-03T00:16:50.705Z,0.00
2023-02-03T00:17:50.671Z,0.00
2023-02-03T00:18:50.699Z,0.00
2023-02-03T00:19:50.650Z,0.00
2023-02-03T00:20:50.645Z,0.00
2023-02-03T00:21:50.655Z,0.00
2023-02-03T00:22:50.628Z,0.00
2023-02-03T00:23:50.625Z,0.00
2023-02-03T00:24:50.634Z,0.00
2023-02-03T00:25:50.650Z,0.00
2023-02-03T00:26:50.599Z,0.00
2023-02-03T00:27:50.611Z,0.00
2023-02-03T00:28:50.633Z,0.00
2023-02-03T00:29:50.561Z,0.00
2023-02-03T00:30:50.556Z,0.00
2023-02-03T00:31:50.595Z,0.00
2023-02-03T00:32:50.525Z,0.00
2023-02-03T00:33:50.514Z,0.00
2023-02-03T00:34:50.484Z,0.00
2023-02-03T00:35:50.495Z,0.00
2023-02-03T00:36:50.489Z,0.00
2023-02-03T00:37:50.485Z,0.00
2023-02-03T00:38:50.515Z,0.00
2023-02-03T00:39:50.450Z,0.00
2023-02-03T00:40:50.438Z,0.00
2023-02-03T00:41:50.485Z,0.00
2023-02-03T00:42:50.435Z,0.00
2023-02-03T00:43:50.419Z,0.00
2023-02-03T00:44:50.408Z,0.00
2023-02-03T00:45:50.424Z,0.00
2023-02-03T00:46:50.385Z,0.00
2023-02-03T00:47:50.387Z,0.00
2023-02-03T00:48:50.368Z,0.00
2023-02-03T00:49:50.339Z,0.00
2023-02-03T00:50:50.378Z,0.00
2023-02-03T00:51:50.357Z,0.00
2023-02-03T00:52:50.334Z,0.00
2023-02-03T00:53:50.357Z,0.00
2023-02-03T00:54:50.332Z,0.00
2023-02-03T00:55:50.322Z,0.00
2023-02-03T00:56:50.294Z,0.00
2023-02-03T00:57:50.270Z,0.00
2023-02-03T00:58:50.310Z,0.00
2023-02-03T00:59:50.259Z,0.00
2023-02-03T01:00:50.258Z,0.00
2023-02-03T01:01:50.257Z,0.00
2023-02-03T01:02:50.209Z,0.00
2023-02-03T01:03:50.257Z,0.00
2023-02-03T01:04:50.217Z,0.00
2023-02-03T01:05:50.193Z,0.00
2023-02-03T01:06:50.170Z,0.00
2023-02-03T01:07:50.199Z,0.00
2023-02-03T01:08:50.199Z,0.00
2023-02-03T01:09:50.163Z,0.00
2023-02-03T01:10:50.152Z,0.00
2023-02-03T01:11:50.163Z,0.00
2023-02-03T01:12:50.140Z,0.00
2023-02-03T01:13:50.125Z,0.00
2023-02-03T01:14:50.110Z,0.00
2023-02-03T01:15:50.120Z,0.00
2023-02-03T01:16:50.137Z,0.00
2023-02-03T01:17:50.070Z,0.00
2023-02-03T01:18:50.134Z,0.00
2023-02-03T01:19:50.071Z,0.00
2023-02-03T01:20:50.084Z,0.00
2023-02-03T01:21:50.040Z,0.00
2023-02-03T01:22:50.059Z,0.00
2023-02-03T01:23:50.049Z,0.00
2023-02-03T01:24:50.029Z,0.00
2023-02-03T01:25:50.004Z,0.00
2023-02-03T01:26:50.009Z,0.00
2023-02-03T01:27:50.031Z,0.00
2023-02-03T01:28:50.001Z,0.00
2023-02-03T01:29:50.030Z,0.00
2023-02-03T01:30:50.056Z,0.00
2023-02-03T01:31:50.034Z,0.00
2023-02-03T01:32:49.921Z,0.00
2023-02-03T01:33:49.947Z,0.00
2023-02-03T01:34:49.912Z,0.00
2023-02-03T01:35:49.968Z,0.00
2023-02-03T01:36:49.903Z,0.00
2023-02-03T01:37:49.922Z,0.00
2023-02-03T01:38:49.898Z,0.00
2023-02-03T01:39:49.897Z,0.00
2023-02-03T01:40:49.880Z,0.00
2023-02-03T01:41:49.854Z,0.00
2023-02-03T01:42:49.847Z,0.00
2023-02-03T01:43:49.831Z,0.00
2023-02-03T01:44:49.799Z,0.00
2023-02-03T01:45:49.861Z,0.00
2023-02-03T01:46:49.781Z,0.00
2023-02-03T01:47:49.837Z,0.00
2023-02-03T01:48:49.793Z,0.00
2023-02-03T01:49:49.768Z,0.00
2023-02-03T01:50:49.747Z,0.00
2023-02-03T01:51:49.754Z,0.00
2023-02-03T01:52:49.730Z,0.00
2023-02-03T01:53:49.755Z,0.00
2023-02-03T01:54:49.734Z,0.00
2023-02-03T01:55:49.744Z,0.00
2023-02-03T01:56:49.715Z,0.00
2023-02-03T01:57:49.666Z,0.00
2023-02-03T01:58:49.703Z,0.00
2023-02-03T01:59:49.674Z,0.00
2023-02-03T02:00:49.672Z,0.00
2023-02-03T02:01:49.721Z,0.00
2023-02-03T02:02:49.685Z,0.00
2023-02-03T02:03:49.651Z,0.00
2023-02-03T02:04:49.635Z,0.00
2023-02-03T02:05:49.619Z,0.00
2023-02-03T02:06:49.579Z,0.00
2023-02-03T02:07:49.584Z,0.00
2023-02-03T02:08:49.608Z,0.00
2023-02-03T02:09:49.738Z,0.00
2023-02-03T02:10:49.568Z,0.00
2023-02-03T02:11:49.537Z,0.00
2023-02-03T02:12:49.564Z,0.00
2023-02-03T02:13:49.750Z,0.00
2023-02-03T02:14:49.538Z,0.00
2023-02-03T02:15:49.541Z,0.00
2023-02-03T02:16:49.499Z,0.00
2023-02-03T02:17:49.465Z,0.00
2023-02-03T02:18:49.518Z,0.00
2023-02-03T02:19:49.466Z,0.00
2023-02-03T02:20:49.474Z,0.00
2023-02-03T02:21:49.449Z,0.00
2023-02-03T02:22:49.439Z,0.00
2023-02-03T02:23:49.454Z,0.00
2023-02-03T02:24:49.419Z,0.00
2023-02-03T02:25:49.454Z,0.00
2023-02-03T02:26:49.399Z,0.00
2023-02-03T02:27:49.419Z,0.00
2023-02-03T02:28:49.398Z,0.00
2023-02-03T02:29:49.367Z,0.00
2023-02-03T02:30:49.454Z,0.00
2023-02-03T02:31:49.489Z,0.00
2023-02-03T02:32:49.356Z,0.00
2023-02-03T02:33:49.307Z,0.00
2023-02-03T02:34:49.325Z,0.00
2023-02-03T02:35:49.296Z,0.00
2023-02-03T02:36:49.495Z,0.00
2023-02-03T02:37:49.352Z,0.00
2023-02-03T02:38:49.282Z,0.00
2023-02-03T02:39:49.288Z,0.00
2023-02-03T02:40:49.239Z,0.00
2023-02-03T02:41:49.283Z,0.00
2023-02-03T02:42:49.241Z,0.00
2023-02-03T02:43:49.232Z,0.00
2023-02-03T02:44:49.224Z,0.00
2023-02-03T02:45:49.213Z,0.00
2023-02-03T02:46:49.198Z,0.00
2023-02-03T02:47:49.189Z,0.00
2023-02-03T02:48:49.164Z,0.00
2023-02-03T02:49:49.196Z,0.00
2023-02-03T02:50:49.198Z,0.00
2023-02-03T02:51:49.146Z,0.00
2023-02-03T02:52:49.139Z,0.00
2023-02-03T02:53:49.133Z,0.00
2023-02-03T02:54:49.107Z,0.00
2023-02-03T02:55:49.110Z,0.00
2023-02-03T02:56:49.164Z,0.00
2023-02-03T02:57:49.095Z,0.00
2023-02-03T02:58:49.081Z,0.00
2023-02-03T02:59:49.057Z,0.00
2023-02-03T03:00:49.054Z,0.00
2023-02-03T03:01:49.038Z,0.00
2023-02-03T03:02:49.095Z,0.00
2023-02-03T03:03:49.033Z,0.00
2023-02-03T03:04:49.052Z,0.00
2023-02-03T03:05:49.016Z,0.00
2023-02-03T03:06:49.006Z,0.00
2023-02-03T03:07:49.022Z,0.00
2023-02-03T03:08:48.968Z,0.00
2023-02-03T03:09:48.974Z,0.00
2023-02-03T03:10:48.934Z,0.00
2023-02-03T03:11:48.967Z,0.00
2023-02-03T03:12:48.939Z,0.00
2023-02-03T03:13:48.969Z,0.00
2023-02-03T03:14:48.923Z,0.00
2023-02-03T03:15:48.941Z,0.00
2023-02-03T03:16:48.906Z,0.00
2023-02-03T03:17:48.889Z,0.00
2023-02-03T03:18:48.881Z,0.00
2023-02-03T03:19:48.854Z,0.00
2023-02-03T03:20:48.892Z,0.00
2023-02-03T03:21:48.853Z,0.00
2023-02-03T03:22:48.860Z,0.00
2023-02-03T03:23:48.845Z,0.00
2023-02-03T03:24:48.814Z,0.00
2023-02-03T03:25:48.821Z,0.00
2023-02-03T03:26:48.818Z,0.00
2023-02-03T03:27:48.852Z,0.00
2023-02-03T03:28:48.811Z,0.00
2023-02-03T03:29:48.781Z,0.00
2023-02-03T03:30:48.820Z,0.00
2023-02-03T03:31:48.790Z,0.00
2023-02-03T03:32:48.745Z,0.00
2023-02-03T03:33:48.724Z,0.00
2023-02-03T03:34:48.736Z,0.00
2023-02-03T03:35:48.677Z,0.00
2023-02-03T03:36:48.695Z,0.00
2023-02-03T03:37:48.711Z,0.00
2023-02-03T03:38:48.656Z,0.00
2023-02-03T03:39:48.650Z,0.00
2023-02-03T03:40:48.649Z,0.00
2023-02-03T03:41:48.616Z,0.00
2023-02-03T03:42:48.645Z,0.00
2023-02-03T03:43:48.616Z,0.00
2023-02-03T03:44:48.617Z,0.00
2023-02-03T03:45:48.601Z,0.00
2023-02-03T03:46:48.670Z,0.00
2023-02-03T03:47:48.619Z,0.00
2023-02-03T03:48:48.569Z,0.00
2023-02-03T03:49:48.574Z,0.00
2023-02-03T03:50:48.562Z,0.00
2023-02-03T03:51:48.542Z,0.00
2023-02-03T03:52:48.527Z,0.00
2023-02-03T03:53:48.546Z,0.00
2023-02-03T03:54:48.495Z,0.00
2023-02-03T03:55:48.498Z,0.00
2023-02-03T03:56:48.493Z,0.00
2023-02-03T03:57:48.499Z,0.00
2023-02-03T03:58:48.457Z,0.00
2023-02-03T03:59:48.563Z,0.00
2023-02-03T04:00:48.441Z,0.00
2023-02-03T04:01:48.606Z,0.00
2023-02-03T04:02:48.548Z,0.00
2023-02-03T04:03:48.443Z,0.00
2023-02-03T04:04:48.449Z,0.00
2023-02-03T04:05:48.398Z,0.00
2023-02-03T04:06:48.402Z,0.00
2023-02-03T04:07:48.411Z,0.00
2023-02-03T04:08:48.474Z,0.00
2023-02-03T04:09:48.399Z,0.00
2023-02-03T04:10:48.339Z,0.00
2023-02-03T04:11:48.378Z,0.00
2023-02-03T04:12:48.321Z,0.00
2023-02-03T04:13:48.309Z,0.00
2023-02-03T04:14:48.320Z,0.00
2023-02-03T04:15:48.328Z,0.00
2023-02-03T04:16:48.301Z,0.00
2023-02-03T04:17:48.308Z,0.00
2023-02-03T04:18:48.278Z,0.00
2023-02-03T04:19:48.257Z,0.00
2023-02-03T04:20:48.250Z,0.00
2023-02-03T04:21:48.222Z,0.00
2023-02-03T04:22:48.251Z,0.00
2023-02-03T04:23:48.233Z,0.00
2023-02-03T04:24:48.193Z,0.00
2023-02-03T04:25:48.203Z,0.00
2023-02-03T04:26:48.207Z,0.00
2023-02-03T04:27:48.310Z,0.00
2023-02-03T04:28:48.172Z,0.00
2023-02-03T04:29:48.159Z,0.00
2023-02-03T04:30:48.221Z,0.00
2023-02-03T04:31:48.198Z,0.00
2023-02-03T04:32:48.126Z,0.00
2023-02-03T04:33:48.138Z,0.00
2023-02-03T04:34:48.172Z,0.00
2023-02-03T04:35:48.101Z,0.00
2023-02-03T04:36:48.083Z,0.00
2023-02-03T04:37:48.076Z,0.00
2023-02-03T04:38:48.074Z,0.00
2023-02-03T04:39:48.075Z,0.00
2023-02-03T04:40:48.057Z,0.00
2023-02-03T04:41:48.050Z,0.00
2023-02-03T04:42:48.025Z,0.00
2023-02-03T04:43:48.004Z,0.00
2023-02-03T04:44:48.018Z,0.00
2023-02-03T04:45:48.054Z,0.00
2023-02-03T04:46:47.991Z,0.00
2023-02-03T04:47:47.976Z,0.00
2023-02-03T04:48:47.979Z,0.00
2023-02-03T04:49:48.006Z,0.00
2023-02-03T04:50:47.949Z,0.00
2023-02-03T04:51:47.936Z,0.00
2023-02-03T04:52:47.947Z,0.00
2023-02-03T04:53:47.936Z,0.00
2023-02-03T04:54:47.919Z,0.00
2023-02-03T04:55:47.909Z,0.00
2023-02-03T04:56:47.876Z,0.00
2023-02-03T04:57:47.894Z,0.00
2023-02-03T04:58:47.880Z,0.00
2023-02-03T04:59:47.914Z,0.00
2023-02-03T05:00:47.851Z,0.00
2023-02-03T05:01:47.818Z,0.00
2023-02-03T05:02:47.835Z,0.00
2023-02-03T05:03:47.880Z,0.00
2023-02-03T05:04:47.826Z,0.00
2023-02-03T05:05:47.820Z,0.00
2023-02-03T05:06:47.790Z,0.00
2023-02-03T05:07:47.786Z,0.00
2023-02-03T05:08:47.746Z,0.00
2023-02-03T05:09:47.849Z,0.00
2023-02-03T05:10:47.754Z,0.00
2023-02-03T05:11:47.719Z,0.00
2023-02-03T05:12:47.735Z,0.00
2023-02-03T05:13:47.719Z,0.00
2023-02-03T05:14:47.749Z,0.00
2023-02-03T05:15:47.699Z,0.00
2023-02-03T05:16:47.728Z,0.00
2023-02-03T05:17:47.798Z,0.00
2023-02-03T05:18:47.679Z,0.00
2023-02-03T05:19:47.677Z,0.00
2023-02-03T05:20:47.675Z,0.00
2023-02-03T05:21:47.653Z,0.00
2023-02-03T05:22:47.608Z,0.00
2023-02-03T05:23:47.621Z,0.00
2023-02-03T05:24:47.619Z,0.00
2023-02-03T05:25:47.663Z,0.00
2023-02-03T05:26:47.601Z,0.00
2023-02-03T05:27:47.599Z,0.00
2023-02-03T05:28:47.551Z,0.00
2023-02-03T05:29:47.583Z,0.00
2023-02-03T05:30:47.571Z,0.00
2023-02-03T05:31:47.593Z,0.00
2023-02-03T05:32:47.511Z,0.00
2023-02-03T05:33:47.541Z,0.00
2023-02-03T05:34:47.534Z,0.00
2023-02-03T05:35:47.533Z,0.00
2023-02-03T05:36:47.481Z,0.00
2023-02-03T05:37:47.464Z,0.00
2023-02-03T05:38:47.462Z,0.00
2023-02-03T05:39:47.492Z,0.00
2023-02-03T05:40:47.457Z,0.00
2023-02-03T05:41:47.422Z,0.00
2023-02-03T05:42:47.420Z,0.00
2023-02-03T05:43:47.440Z,0.00
2023-02-03T05:44:47.433Z,0.00
2023-02-03T05:45:47.431Z,0.00
2023-02-03T05:46:47.406Z,0.00
2023-02-03T05:47:47.361Z,0.00
2023-02-03T05:48:47.358Z,0.00
2023-02-03T05:49:47.362Z,0.00
2023-02-03T05:50:47.353Z,0.00
2023-02-03T05:51:47.331Z,0.00
2023-02-03T05:52:47.341Z,0.00
2023-02-03T05:53:47.315Z,0.00
2023-02-03T05:54:47.303Z,0.00
2023-02-03T05:55:47.305Z,0.00
2023-02-03T05:56:47.273Z,0.00
2023-02-03T05:57:47.253Z,0.00
2023-02-03T05:58:47.243Z,0.00
2023-02-03T05:59:47.252Z,0.00
2023-02-03T06:00:47.249Z,0.00
2023-02-03T06:01:47.213Z,0.00
2023-02-03T06:02:47.235Z,0.00
2023-02-03T06:03:47.331Z,0.00
2023-02-03T06:04:47.216Z,0.00
2023-02-03T06:05:47.234Z,0.00
2023-02-03T06:06:47.183Z,0.00
2023-02-03T06:07:47.145Z,0.00
2023-02-03T06:08:47.260Z,0.00
2023-02-03T06:09:47.155Z,0.00
2023-02-03T06:10:47.169Z,0.00
2023-02-03T06:11:47.134Z,0.00
2023-02-03T06:12:47.111Z,0.00
2023-02-03T06:13:47.108Z,0.00
2023-02-03T06:14:47.118Z,0.00
2023-02-03T06:15:47.124Z,0.00
2023-02-03T06:16:47.170Z,0.00
2023-02-03T06:17:47.043Z,1.00
2023-02-03T06:18:47.099Z,0.00
2023-02-03T06:19:47.103Z,0.00
2023-02-03T06:20:46.997Z,1.00
2023-02-03T06:21:47.008Z,1.00
2023-02-03T06:22:47.034Z,1.00
2023-02-03T06:23:46.972Z,1.00
2023-02-03T06:24:46.927Z,1.00
2023-02-03T06:25:46.981Z,1.00
2023-02-03T06:26:46.957Z,2.00
2023-02-03T06:27:47.183Z,0.00
2023-02-03T06:28:46.992Z,0.00
2023-02-03T06:29:46.898Z,2.00
2023-02-03T06:30:47.034Z,1.00
2023-02-03T06:31:47.106Z,1.00
2023-02-03T06:32:46.867Z,2.00
2023-02-03T06:33:46.874Z,2.00
2023-02-03T06:34:46.853Z,4.00
2023-02-03T06:35:46.843Z,4.00
2023-02-03T06:36:46.836Z,4.00
2023-02-03T06:37:46.847Z,3.00
2023-02-03T06:38:46.800Z,5.00
2023-02-03T06:39:46.801Z,7.00
2023-02-03T06:40:46.780Z,9.00
2023-02-03T06:41:46.778Z,9.00
2023-02-03T06:42:46.790Z,6.00
2023-02-03T06:43:46.730Z,10.00
2023-02-03T06:44:46.760Z,13.00
2023-02-03T06:45:46.740Z,14.00
2023-02-03T06:46:46.741Z,14.00
2023-02-03T06:47:46.719Z,14.00
2023-02-03T06:48:46.701Z,12.00
2023-02-03T06:49:46.744Z,17.00
2023-02-03T06:50:48.668Z,21.00
2023-02-03T06:51:46.687Z,23.00
2023-02-03T06:52:46.672Z,26.00
2023-02-03T06:53:46.663Z,23.00
2023-02-03T06:54:46.892Z,39.00
2023-02-03T06:55:46.665Z,38.00
2023-02-03T06:56:46.654Z,35.00
2023-02-03T06:57:46.621Z,36.00
2023-02-03T06:58:46.593Z,50.00
2023-02-03T06:59:46.616Z,48.00
2023-02-03T07:00:46.613Z,41.00
2023-02-03T07:01:46.629Z,49.00
2023-02-03T07:02:46.680Z,62.00
2023-02-03T07:03:46.544Z,70.00
2023-02-03T07:04:46.558Z,67.00
2023-02-03T07:05:46.563Z,53.00
2023-02-03T07:06:46.583Z,70.00
2023-02-03T07:07:46.548Z,62.00
2023-02-03T07:08:46.494Z,77.00
2023-02-03T07:09:46.473Z,92.00
2023-02-03T07:10:46.539Z,60.00
2023-02-03T07:11:46.472Z,87.00
2023-02-03T07:12:46.484Z,96.00
2023-02-03T07:13:46.475Z,66.00
2023-02-03T07:14:46.427Z,98.00
2023-02-03T07:15:46.605Z,72.00
2023-02-03T07:16:46.618Z,71.00
2023-02-03T07:17:46.423Z,103.00
2023-02-03T07:18:47.903Z,102.00
2023-02-03T07:19:46.425Z,111.00
2023-02-03T07:20:46.423Z,108.00
2023-02-03T07:21:46.371Z,139.00
2023-02-03T07:22:46.376Z,120.00
2023-02-03T07:23:46.381Z,90.00
2023-02-03T07:24:46.437Z,118.00
2023-02-03T07:25:46.375Z,96.00
2023-02-03T07:26:46.352Z,71.00
2023-02-03T07:27:46.378Z,99.00
2023-02-03T07:28:46.415Z,112.00
2023-02-03T07:29:46.307Z,111.00
2023-02-03T07:30:46.446Z,110.00
2023-02-03T07:31:46.464Z,149.00
2023-02-03T07:32:46.268Z,128.00
2023-02-03T07:33:46.277Z,104.00
2023-02-03T07:34:46.252Z,160.00
2023-02-03T07:35:46.238Z,216.00
2023-02-03T07:36:46.242Z,144.00
2023-02-03T07:37:46.239Z,146.00
2023-02-03T07:38:46.180Z,204.00
2023-02-03T07:39:46.222Z,232.00
2023-02-03T07:40:46.207Z,165.00
2023-02-03T07:41:46.153Z,229.00
2023-02-03T07:42:46.161Z,243.00
2023-02-03T07:43:46.156Z,324.00
2023-02-03T07:44:46.163Z,322.00
2023-02-03T07:45:46.140Z,286.00
2023-02-03T07:46:46.149Z,282.00
2023-02-03T07:47:46.107Z,269.00
2023-02-03T07:48:46.120Z,385.00
2023-02-03T07:49:46.098Z,244.00
2023-02-03T07:50:46.084Z,331.00
2023-02-03T07:51:46.130Z,483.00
2023-02-03T07:52:46.050Z,308.00
2023-02-03T07:53:46.069Z,536.00
2023-02-03T07:54:46.069Z,517.00
2023-02-03T07:55:46.015Z,367.00
2023-02-03T07:56:46.042Z,470.00
2023-02-03T07:57:46.010Z,352.00
2023-02-03T07:58:45.986Z,324.00
2023-02-03T07:59:45.999Z,426.00
2023-02-03T08:00:45.973Z,419.00
2023-02-03T08:01:46.157Z,320.00
2023-02-03T08:02:45.984Z,288.00
2023-02-03T08:03:45.965Z,403.00
2023-02-03T08:04:45.952Z,297.00
2023-02-03T08:05:45.934Z,229.00
2023-02-03T08:06:46.005Z,238.00
2023-02-03T08:07:45.923Z,300.00
2023-02-03T08:08:45.910Z,168.00
2023-02-03T08:09:45.909Z,187.00
2023-02-03T08:10:45.883Z,288.00
2023-02-03T08:11:45.893Z,337.00
2023-02-03T08:12:45.903Z,617.00
2023-02-03T08:13:45.854Z,488.00
2023-02-03T08:14:45.854Z,703.00
2023-02-03T08:15:45.975Z,620.00
2023-02-03T08:16:45.831Z,563.00
2023-02-03T08:17:45.826Z,430.00
2023-02-03T08:18:45.814Z,422.00
2023-02-03T08:19:45.773Z,437.00
2023-02-03T08:20:45.782Z,369.00
2023-02-03T08:21:45.808Z,415.00
2023-02-03T08:22:45.766Z,362.00
2023-02-03T08:23:45.817Z,424.00
2023-02-03T08:24:45.742Z,429.00
2023-02-03T08:25:45.755Z,399.00
2023-02-03T08:26:45.749Z,468.00
2023-02-03T08:27:45.826Z,394.00
2023-02-03T08:28:45.747Z,357.00
2023-02-03T08:29:45.685Z,451.00
2023-02-03T08:30:45.745Z,314.00
2023-02-03T08:31:45.768Z,336.00
2023-02-03T08:32:45.663Z,379.00
2023-02-03T08:33:45.681Z,333.00
2023-02-03T08:34:45.836Z,338.00
2023-02-03T08:35:45.906Z,407.00
2023-02-03T08:36:45.749Z,333.00
2023-02-03T08:37:45.604Z,327.00
2023-02-03T08:38:45.626Z,315.00
2023-02-03T08:39:45.606Z,389.00
2023-02-03T08:40:45.617Z,297.00
2023-02-03T08:41:45.559Z,339.00
2023-02-03T08:42:45.590Z,376.00
2023-02-03T08:43:45.541Z,385.00
2023-02-03T08:44:45.527Z,287.00
2023-02-03T08:45:45.695Z,435.00
2023-02-03T08:46:45.507Z,473.00
2023-02-03T08:47:45.509Z,454.00
2023-02-03T08:48:45.498Z,555.00
2023-02-03T08:49:45.527Z,530.00
2023-02-03T08:50:45.489Z,577.00
2023-02-03T08:51:45.481Z,444.00
2023-02-03T08:52:45.466Z,599.00
2023-02-03T08:53:45.442Z,531.00
2023-02-03T08:54:45.442Z,746.00
2023-02-03T08:55:45.475Z,584.00
2023-02-03T08:56:45.441Z,535.00
2023-02-03T08:57:45.400Z,583.00
2023-02-03T08:58:45.436Z,668.00
2023-02-03T08:59:45.420Z,644.00
2023-02-03T09:00:45.425Z,652.00
2023-02-03T09:01:45.392Z,724.00
2023-02-03T09:02:45.370Z,679.00
2023-02-03T09:03:45.372Z,650.00
2023-02-03T09:04:45.407Z,932.00
2023-02-03T09:05:45.338Z,713.00
2023-02-03T09:06:45.383Z,454.00
2023-02-03T09:07:45.319Z,431.00
2023-02-03T09:08:45.303Z,879.00
2023-02-03T09:09:45.302Z,650.00
2023-02-03T09:10:45.380Z,468.00
2023-02-03T09:11:45.292Z,617.00
2023-02-03T09:12:45.267Z,571.00
2023-02-03T09:13:45.262Z,628.00
2023-02-03T09:14:45.228Z,440.00
2023-02-03T09:15:45.232Z,546.00
2023-02-03T09:16:45.301Z,436.00
2023-02-03T09:17:45.204Z,463.00
2023-02-03T09:18:45.221Z,486.00
2023-02-03T09:19:45.224Z,420.00
2023-02-03T09:20:45.161Z,394.00
2023-02-03T09:21:46.516Z,315.00
2023-02-03T09:22:45.177Z,360.00
2023-02-03T09:23:45.162Z,474.00
2023-02-03T09:24:45.139Z,452.00
2023-02-03T09:25:47.840Z,393.00
2023-02-03T09:26:45.131Z,590.00
2023-02-03T09:27:45.141Z,504.00
2023-02-03T09:28:45.095Z,686.00
2023-02-03T09:29:45.140Z,515.00
2023-02-03T09:30:45.155Z,538.00
2023-02-03T09:31:45.181Z,562.00
2023-02-03T09:32:45.064Z,561.00
2023-02-03T09:33:45.064Z,585.00
2023-02-03T09:34:45.046Z,362.00
2023-02-03T09:35:45.037Z,537.00
2023-02-03T09:36:45.027Z,596.00
2023-02-03T09:37:45.005Z,500.00
2023-02-03T09:38:45.103Z,552.00
2023-02-03T09:39:45.008Z,512.00
2023-02-03T09:40:44.978Z,452.00
2023-02-03T09:41:45.021Z,426.00
2023-02-03T09:42:44.936Z,571.00
2023-02-03T09:43:44.946Z,583.00
2023-02-03T09:44:44.950Z,604.00
2023-02-03T09:45:44.931Z,546.00
2023-02-03T09:46:44.951Z,553.00
2023-02-03T09:47:44.884Z,535.00
2023-02-03T09:48:44.893Z,384.00
2023-02-03T09:49:44.911Z,645.00
2023-02-03T09:50:44.891Z,559.00
2023-02-03T09:51:44.887Z,541.00
2023-02-03T09:52:44.901Z,746.00
2023-02-03T09:53:44.840Z,383.00
2023-02-03T09:54:44.875Z,495.00
2023-02-03T09:55:44.817Z,679.00
2023-02-03T09:56:44.840Z,904.00
2023-02-03T09:57:44.812Z,618.00
2023-02-03T09:58:44.815Z,654.00
2023-02-03T09:59:44.796Z,664.00
2023-02-03T10:00:44.844Z,968.00
2023-02-03T10:01:44.789Z,653.00
2023-02-03T10:02:44.808Z,557.00
2023-02-03T10:03:44.770Z,631.00
2023-02-03T10:04:44.721Z,702.00
2023-02-03T10:05:44.755Z,614.00
2023-02-03T10:06:44.762Z,510.00
2023-02-03T10:07:44.690Z,525.00
2023-02-03T10:08:44.727Z,697.00
2023-02-03T10:09:44.692Z,746.00
2023-02-03T10:10:44.691Z,622.00
2023-02-03T10:11:44.675Z,672.00
2023-02-03T10:12:44.670Z,611.00
2023-02-03T10:13:44.707Z,881.00
2023-02-03T10:14:44.693Z,744.00
2023-02-03T10:15:44.669Z,553.00
2023-02-03T10:16:44.626Z,549.00
2023-02-03T10:17:44.617Z,343.00
2023-02-03T10:18:44.600Z,676.00
2023-02-03T10:19:44.640Z,998.00
2023-02-03T10:20:44.585Z,978.00
2023-02-03T10:21:44.557Z,1080.00
2023-02-03T10:22:44.577Z,930.00
2023-02-03T10:23:44.590Z,521.00
2023-02-03T10:24:44.554Z,1033.00
2023-02-03T10:25:44.579Z,1020.00
2023-02-03T10:26:44.529Z,774.00
2023-02-03T10:27:44.564Z,718.00
2023-02-03T10:28:44.520Z,418.00
2023-02-03T10:29:44.491Z,364.00
2023-02-03T10:30:44.597Z,809.00
2023-02-03T10:31:44.627Z,954.00
2023-02-03T10:32:44.495Z,1040.00
2023-02-03T10:33:44.448Z,961.00
2023-02-03T10:34:44.442Z,789.00
2023-02-03T10:35:44.515Z,639.00
2023-02-03T10:36:44.433Z,543.00
2023-02-03T10:37:44.434Z,411.00
2023-02-03T10:38:44.391Z,306.00
2023-02-03T10:39:44.390Z,232.00
2023-02-03T10:40:44.460Z,200.00
2023-02-03T10:41:44.362Z,187.00
2023-02-03T10:42:44.376Z,117.00
2023-02-03T10:43:44.356Z,79.00
2023-02-03T10:44:44.354Z,565.00
2023-02-03T10:45:44.328Z,512.00
2023-02-03T10:46:44.413Z,700.00
2023-02-03T10:47:44.318Z,715.00
2023-02-03T10:48:44.299Z,526.00
2023-02-03T10:49:44.855Z,760.00
2023-02-03T10:50:44.301Z,888.00
2023-02-03T10:51:44.250Z,873.00
2023-02-03T10:52:44.264Z,801.00
2023-02-03T10:53:44.229Z,879.00
2023-02-03T10:54:44.223Z,1367.00
2023-02-03T10:55:44.243Z,957.00
2023-02-03T10:56:44.208Z,860.00
2023-02-03T10:57:44.222Z,994.00
2023-02-03T10:58:44.194Z,1349.00
2023-02-03T10:59:44.167Z,1501.00
2023-02-03T11:00:44.172Z,2174.00
2023-02-03T11:01:44.227Z,2683.00
2023-02-03T11:02:44.293Z,2914.00
2023-02-03T11:03:44.166Z,3133.00
2023-02-03T11:04:44.144Z,3241.00
2023-02-03T11:05:44.123Z,2977.00
2023-02-03T11:06:44.148Z,2570.00
2023-02-03T11:07:44.113Z,2251.00
2023-02-03T11:08:44.102Z,2119.00
2023-02-03T11:09:44.115Z,1999.00
2023-02-03T11:10:44.068Z,1941.00
2023-02-03T11:11:44.094Z,2126.00
2023-02-03T11:12:44.062Z,2131.00
2023-02-03T11:13:44.048Z,2061.00
2023-02-03T11:14:44.021Z,1908.00
2023-02-03T11:15:44.144Z,2039.00
2023-02-03T11:16:44.624Z,2356.00
2023-02-03T11:17:44.005Z,2718.00
2023-02-03T11:18:44.019Z,2822.00
2023-02-03T11:19:43.975Z,2705.00
2023-02-03T11:20:43.991Z,2599.00
2023-02-03T11:21:43.999Z,2635.00
2023-02-03T11:22:43.948Z,2771.00
2023-02-03T11:23:43.938Z,2902.00
2023-02-03T11:24:43.925Z,2919.00
2023-02-03T11:25:43.927Z,3218.00
2023-02-03T11:26:44.004Z,3207.00
2023-02-03T11:27:43.940Z,2963.00
2023-02-03T11:28:43.899Z,2914.00
2023-02-03T11:29:43.893Z,2737.00
2023-02-03T11:30:43.952Z,2769.00
2023-02-03T11:31:43.968Z,2941.00
2023-02-03T11:32:43.832Z,3004.00
2023-02-03T11:33:43.853Z,3031.00
2023-02-03T11:34:43.866Z,2721.00
2023-02-03T11:35:43.823Z,2399.00
2023-02-03T11:36:43.867Z,2213.00
2023-02-03T11:37:43.803Z,1585.00
2023-02-03T11:38:43.883Z,2547.00
2023-02-03T11:39:43.785Z,2814.00
2023-02-03T11:40:43.764Z,2524.00
2023-02-03T11:41:43.818Z,2879.00
2023-02-03T11:42:43.753Z,2662.00
2023-02-03T11:43:43.774Z,2549.00
2023-02-03T11:44:43.763Z,2436.00
2023-02-03T11:45:43.777Z,2434.00
2023-02-03T11:46:43.789Z,2557.00
2023-02-03T11:47:43.747Z,3159.00
2023-02-03T11:48:43.736Z,3848.00
2023-02-03T11:49:43.673Z,3056.00
2023-02-03T11:50:43.687Z,2686.00
2023-02-03T11:51:43.663Z,2970.00
2023-02-03T11:52:43.697Z,3388.00
2023-02-03T11:53:56.330Z,3673.00
2023-02-03T11:54:44.626Z,2100.00
2023-02-03T11:55:43.650Z,5484.00
2023-02-03T11:56:43.619Z,1281.00
2023-02-03T11:57:43.620Z,6943.00
2023-02-03T11:58:43.602Z,5416.00
2023-02-03T11:59:43.632Z,3209.00
2023-02-03T12:00:43.568Z,3267.00
2023-02-03T12:01:43.567Z,1112.00
2023-02-03T12:02:43.678Z,5996.00
2023-02-03T12:03:43.592Z,3942.00
2023-02-03T12:04:43.576Z,3445.00
2023-02-03T12:05:43.543Z,2981.00
2023-02-03T12:06:43.536Z,3147.00
2023-02-03T12:07:43.584Z,1215.00
2023-02-03T12:08:43.480Z,5683.00
2023-02-03T12:09:43.497Z,1603.00
2023-02-03T12:10:43.461Z,4137.00
2023-02-03T12:11:43.461Z,5790.00
2023-02-03T12:12:43.500Z,2870.00
2023-02-03T12:13:43.456Z,5054.00
2023-02-03T12:14:43.455Z,5375.00
2023-02-03T12:15:43.435Z,2488.00
2023-02-03T12:16:43.399Z,5032.00
2023-02-03T12:17:43.430Z,6854.00
2023-02-03T12:18:43.380Z,3132.00
2023-02-03T12:19:43.406Z,4791.00
2023-02-03T12:20:43.360Z,4543.00
2023-02-03T12:21:43.381Z,3761.00
2023-02-03T12:22:43.389Z,3277.00
2023-02-03T12:23:43.372Z,3783.00
2023-02-03T12:24:43.341Z,3610.00
2023-02-03T12:25:43.317Z,3172.00
2023-02-03T12:26:43.319Z,3888.00
2023-02-03T12:27:43.416Z,3106.00
2023-02-03T12:28:43.370Z,3758.00
2023-02-03T12:29:43.348Z,3383.00
2023-02-03T12:30:43.380Z,3179.00
2023-02-03T12:31:43.333Z,3020.00
2023-02-03T12:32:43.283Z,3274.00
2023-02-03T12:33:43.232Z,5738.00
2023-02-03T12:34:43.213Z,4421.00
2023-02-03T12:35:43.226Z,5356.00
2023-02-03T12:36:43.201Z,3674.00
2023-02-03T12:37:43.215Z,4639.00
2023-02-03T12:38:43.208Z,3516.00
2023-02-03T12:39:43.203Z,3478.00
2023-02-03T12:40:43.228Z,2179.00
2023-02-03T12:41:43.169Z,3264.00
2023-02-03T12:42:43.154Z,3723.00
2023-02-03T12:43:43.136Z,3459.00
2023-02-03T12:44:43.132Z,3831.00
2023-02-03T12:45:43.268Z,3763.00
2023-02-03T12:46:43.113Z,4104.00
2023-02-03T12:47:43.217Z,7486.00
2023-02-03T12:48:43.234Z,4881.00
2023-02-03T12:49:43.149Z,4289.00
2023-02-03T12:50:43.276Z,2709.00
2023-02-03T12:51:43.039Z,1663.00